Napanee, Canada
Current Conditions -  °F | °C
As of 8:00 PM on Saturday 25 Oct 2014 (Local Time) from CYGK Reporting Station
Scattered Clouds Scattered Clouds  
Wind Chill: 54°   Ceiling: Unl
Heat Index: 54°   Visibility: 12mi
Dew Point: 48°   Wind: 10mph
Humidity: 82%   Direction: 230°SW
Pressure: 29.53"   Gusts: NA
Location:  44.25°N, 76.95°W
Report Text: CYGK 260000Z 23009KT 12SM FEW025 SCT060 12/09 A2953 RMK CU1SC2 SLP000 DENSITY ALT 400FT
Loading
Personal Weather Stations






























Interactive Weather Map
Tropical Storm Tracking
New forecast layout! Learn more

10-Day Weather Forecast

Advertisements
Track Severe Weather on mobile